Airfield :
LOGIN :

Register | Disclaimer

   EN    FR    IT 

 










Legend :    VFR   Marginal VFR   IFR   Intensive IFR   Very Intensive IFR
Visi :
Ceiling :
>= 8 km
>= 3000ft
5 to 8 km
1000 to 3000 ft
1500m to 5 km
500 to 1000 ft
800 to 1500m
200 to 500 ft
< 800m
< 200 ft
Symbols :   Thunderstorms  Fog  Heavy snow  Heavy precipitations  Wind > 20 kt
SIGMETs :     Misc.  Thunderstorms  Icing  Turbulence  Mountain Waves  Volcanic Ashes






- Airport Elevation : 1325 ft
- IATA code : EBU


LFMH - St-Etienne Boutheon

CURRENT METAR :
  • 030800Z AUTO 03003KT 350V110 CAVOK 24/14 Q1020

EXPIRED METARs :
  • 030730Z AUTO VRB02KT CAVOK 24/14 Q1020
  • 030700Z AUTO VRB02KT CAVOK 22/13 Q1020
  • 030630Z AUTO VRB01KT CAVOK 21/14 Q1020
  • 030600Z AUTO VRB01KT CAVOK 19/14 Q1020
  • 030530Z AUTO 01001KT CAVOK 18/14 Q1020

Expired Forecast.
ATIS : +33 4 77 36 17 51



MET'MAP, your aeronautical weather chart ! - Copyright ORBIFLY December 2007 - Disclaimer

ORBIFLY MET'MAP TEAM :

Programming & Development : Alexandra Zaïnal
Original concept : Baudouin d'Aumeries
Technical & hardware support : Manuel Goepfert
Assistance : Marc-Olivier Méhu




SOURCES & CREDITS :

   NOAA